Time;durP1;ratioP1;P1;durP2;ratioP2;P2;SDS_P1;SDS_P2;PMS_P1;PMS_P2;Temp;Humidity;BMP_temperature;BMP_pressure;BME280_temperature;BME280_humidity;BME280_pressure;Samples;Min_cycle;Max_cycle;Signal;HPM_P1;HPM_P2
2021/06/10 00:01:18;;;;;;;1.30;0.85;;;;;21.80;102039.00;;;;5094886;28;20972;-76
2021/06/10 00:03:45;;;;;;;0.88;0.77;;;;;21.80;102032.00;;;;5102075;28;20194;-76
2021/06/10 00:06:11;;;;;;;2.65;1.13;;;;;21.70;102032.00;;;;5105759;28;20234;-76
2021/06/10 00:08:38;;;;;;;1.20;0.73;;;;;21.70;102035.00;;;;5095912;28;20217;-76
2021/06/10 00:11:05;;;;;;;1.30;1.20;;;;;21.70;102034.00;;;;5102304;28;20587;-76
2021/06/10 00:13:33;;;;;;;0.95;0.88;;;;;21.60;102032.00;;;;5103690;28;20255;-76
2021/06/10 00:16:00;;;;;;;1.40;1.08;;;;;21.60;102031.00;;;;5096230;28;20652;-76
2021/06/10 00:18:26;;;;;;;2.90;1.23;;;;;21.60;102032.00;;;;5089251;28;20198;-76
2021/06/10 00:20:53;;;;;;;0.93;0.82;;;;;21.60;102045.00;;;;5098533;28;20242;-76
2021/06/10 00:23:20;;;;;;;1.20;0.85;;;;;21.50;102031.00;;;;5106856;28;20205;-76
2021/06/10 00:25:47;;;;;;;1.35;1.00;;;;;21.50;102035.00;;;;5098498;28;20186;-76
2021/06/10 00:28:13;;;;;;;1.65;1.08;;;;;21.50;102032.00;;;;5108936;28;20197;-76
2021/06/10 00:30:41;;;;;;;1.30;1.10;;;;;21.40;102033.00;;;;5107478;28;20197;-76
2021/06/10 00:33:10;;;;;;;2.28;1.17;;;;;21.40;102028.00;;;;5093247;28;20201;-76
2021/06/10 00:35:38;;;;;;;1.63;1.13;;;;;21.40;102024.00;;;;5088563;28;20240;-76
2021/06/10 00:38:05;;;;;;;1.13;0.98;;;;;21.40;102022.00;;;;5094950;28;20186;-76
2021/06/10 00:40:34;;;;;;;1.77;0.93;;;;;21.30;102023.00;;;;5097694;28;20193;-76
2021/06/10 00:43:02;;;;;;;1.30;1.00;;;;;21.30;102018.00;;;;5107831;28;20591;-76
2021/06/10 00:45:29;;;;;;;0.80;0.77;;;;;21.30;102015.00;;;;5108599;28;20198;-76
2021/06/10 00:47:58;;;;;;;1.13;1.02;;;;;21.20;102017.00;;;;5108499;28;20205;-76
2021/06/10 00:50:29;;;;;;;1.77;1.17;;;;;21.20;102016.00;;;;5088719;28;20206;-76
2021/06/10 00:52:55;;;;;;;0.88;0.70;;;;;21.20;102017.00;;;;5099439;28;20246;-76
2021/06/10 00:55:22;;;;;;;1.77;1.20;;;;;21.20;102019.00;;;;5107448;28;20571;-76
2021/06/10 00:57:50;;;;;;;0.77;0.77;;;;;21.10;102009.00;;;;5100019;28;20586;-76
2021/06/10 01:00:18;;;;;;;0.98;0.75;;;;;21.10;102011.00;;;;5095358;28;20189;-75
2021/06/10 01:02:45;;;;;;;1.50;1.35;;;;;21.10;102007.00;;;;5111537;28;20204;-76
2021/06/10 01:05:13;;;;;;;0.85;0.70;;;;;21.00;102001.00;;;;5105615;28;20198;-76
2021/06/10 01:07:50;;;;;;;1.05;0.93;;;;;21.00;101999.00;;;;5099407;28;20667;-76
2021/06/10 01:10:25;;;;;;;1.10;0.88;;;;;20.90;101998.00;;;;5096478;28;20308;-76
2021/06/10 01:12:59;;;;;;;1.10;1.00;;;;;20.90;101994.00;;;;5102581;28;20244;-76
2021/06/10 01:15:30;;;;;;;1.23;0.77;;;;;20.90;101999.00;;;;5112320;28;20201;-76
2021/06/10 01:17:57;;;;;;;1.15;0.70;;;;;20.90;101999.00;;;;5106881;28;20197;-76
2021/06/10 01:20:27;;;;;;;1.02;0.93;;;;;20.80;101996.00;;;;5111797;28;20200;-76
2021/06/10 01:23:05;;;;;;;1.65;1.35;;;;;20.80;102000.00;;;;5103102;28;20724;-75
2021/06/10 01:25:39;;;;;;;1.35;1.00;;;;;20.80;101998.00;;;;5108831;28;20200;-76
2021/06/10 01:28:11;;;;;;;1.20;0.90;;;;;20.70;101993.00;;;;5110109;28;20193;-76
2021/06/10 01:30:42;;;;;;;1.00;0.82;;;;;20.70;101993.00;;;;5108763;28;20221;-76
2021/06/10 01:33:12;;;;;;;1.25;1.15;;;;;20.70;101991.00;;;;5104797;28;20193;-76
2021/06/10 01:35:42;;;;;;;2.38;1.10;;;;;20.70;101989.00;;;;5095143;28;20202;-76
2021/06/10 01:38:09;;;;;;;1.23;1.05;;;;;20.70;101990.00;;;;5109726;28;20197;-76
2021/06/10 01:40:37;;;;;;;1.25;1.02;;;;;20.60;101984.00;;;;5110500;28;20212;-76
2021/06/10 01:43:05;;;;;;;1.17;1.05;;;;;20.60;101988.00;;;;5107503;28;20218;-76
2021/06/10 01:45:34;;;;;;;1.10;1.00;;;;;20.60;101991.00;;;;5105744;28;20189;-76
2021/06/10 01:48:02;;;;;;;1.00;0.90;;;;;20.60;101986.00;;;;5094075;28;20199;-76
2021/06/10 01:50:29;;;;;;;1.73;1.52;;;;;20.60;101995.00;;;;5091416;28;20222;-76
2021/06/10 01:52:57;;;;;;;1.50;1.17;;;;;20.50;101984.00;;;;5107684;28;20197;-76
2021/06/10 01:55:28;;;;;;;0.82;0.82;;;;;20.50;101989.00;;;;5090282;28;20198;-76
2021/06/10 01:57:57;;;;;;;1.30;1.20;;;;;20.50;101991.00;;;;5090185;28;20665;-76
2021/06/10 02:00:24;;;;;;;1.50;1.23;;;;;20.40;101986.00;;;;5109777;28;20255;-76
2021/06/10 02:02:54;;;;;;;1.40;1.17;;;;;20.40;101993.00;;;;5108303;28;20197;-76
2021/06/10 02:05:22;;;;;;;1.70;1.10;;;;;20.40;101985.00;;;;5088675;28;20201;-76
2021/06/10 02:07:49;;;;;;;1.27;1.15;;;;;20.40;101986.00;;;;5106602;28;20201;-76
2021/06/10 02:10:21;;;;;;;2.10;1.10;;;;;20.30;101984.00;;;;5108678;28;20228;-76
2021/06/10 02:12:48;;;;;;;1.20;1.10;;;;;20.30;101984.00;;;;5110416;28;20210;-76
2021/06/10 02:15:17;;;;;;;1.67;1.08;;;;;20.30;101975.00;;;;5104799;28;20198;-76
2021/06/10 02:17:46;;;;;;;2.92;1.10;;;;;20.30;101977.00;;;;5111935;28;20194;-76
2021/06/10 02:20:16;;;;;;;1.00;0.90;;;;;20.20;101979.00;;;;5111197;28;20543;-76
2021/06/10 02:22:43;;;;;;;0.90;0.90;;;;;20.20;101970.00;;;;5108707;28;20709;-76
2021/06/10 02:25:10;;;;;;;1.65;1.08;;;;;20.20;101963.00;;;;5105039;28;20660;-76
2021/06/10 02:27:37;;;;;;;2.03;1.13;;;;;20.20;101962.00;;;;5109981;28;20208;-76
2021/06/10 02:30:07;;;;;;;1.75;1.25;;;;;20.20;101955.00;;;;5110328;28;20217;-76
2021/06/10 02:32:34;;;;;;;1.00;0.90;;;;;20.20;101956.00;;;;5110001;28;20212;-75
2021/06/10 02:35:02;;;;;;;1.33;1.20;;;;;20.10;101953.00;;;;5097075;28;20781;-76
2021/06/10 02:37:31;;;;;;;1.52;1.10;;;;;20.10;101949.00;;;;5105593;28;20625;-76
2021/06/10 02:39:58;;;;;;;1.92;1.40;;;;;20.10;101964.00;;;;5103615;28;20186;-76
2021/06/10 02:42:25;;;;;;;1.58;1.20;;;;;20.10;101963.00;;;;5096237;28;20290;-76
2021/06/10 02:44:54;;;;;;;1.65;1.30;;;;;20.00;101967.00;;;;5096537;28;20657;-76
2021/06/10 02:47:22;;;;;;;1.45;1.17;;;;;20.00;101962.00;;;;5099616;28;20194;-76
2021/06/10 02:49:51;;;;;;;1.67;1.33;;;;;20.00;101966.00;;;;5109753;28;20229;-76
2021/06/10 02:52:20;;;;;;;1.25;0.90;;;;;19.90;101966.00;;;;5109205;28;20189;-76
2021/06/10 02:54:49;;;;;;;1.30;1.20;;;;;19.90;101962.00;;;;5100471;28;20205;-76
2021/06/10 02:57:19;;;;;;;1.17;1.08;;;;;19.90;101957.00;;;;5092873;28;20198;-77
2021/06/10 02:59:48;;;;;;;1.48;1.02;;;;;19.90;101960.00;;;;5099051;28;20205;-76
2021/06/10 03:02:15;;;;;;;1.40;1.10;;;;;19.80;101954.00;;;;5110103;28;20201;-76
2021/06/10 03:04:44;;;;;;;1.77;1.30;;;;;19.80;101949.00;;;;5103518;28;20202;-76
2021/06/10 03:07:13;;;;;;;1.40;1.20;;;;;19.80;101945.00;;;;5109134;28;20205;-76
2021/06/10 03:09:42;;;;;;;1.52;1.08;;;;;19.80;101937.00;;;;5107998;28;20224;-76
2021/06/10 03:12:13;;;;;;;1.52;1.13;;;;;19.70;101944.00;;;;5109689;28;20194;-76
2021/06/10 03:14:43;;;;;;;1.60;1.20;;;;;19.70;101940.00;;;;5109868;28;20194;-76
2021/06/10 03:17:10;;;;;;;1.58;1.10;;;;;19.70;101944.00;;;;5108661;28;20202;-76
2021/06/10 03:19:37;;;;;;;1.45;1.20;;;;;19.70;101942.00;;;;5089919;28;20202;-76
2021/06/10 03:22:04;;;;;;;1.40;1.30;;;;;19.70;101938.00;;;;5092533;28;20189;-75
2021/06/10 03:24:33;;;;;;;1.70;1.10;;;;;19.60;101936.00;;;;5099554;28;20202;-76
2021/06/10 03:27:00;;;;;;;1.75;1.17;;;;;19.60;101931.00;;;;5109621;28;20648;-76
2021/06/10 03:29:28;;;;;;;1.52;1.15;;;;;19.60;101924.00;;;;5109553;28;20283;-76
2021/06/10 03:31:55;;;;;;;1.27;1.15;;;;;19.60;101924.00;;;;5110415;28;20213;-76
2021/06/10 03:34:22;;;;;;;1.42;0.98;;;;;19.60;101921.00;;;;5108256;28;20222;-76
2021/06/10 03:36:50;;;;;;;1.27;1.15;;;;;19.60;101925.00;;;;5108313;28;20194;-76
2021/06/10 03:39:20;;;;;;;1.67;1.45;;;;;19.60;101929.00;;;;5109344;28;20798;-76
2021/06/10 03:41:46;;;;;;;2.15;1.67;;;;;19.60;101935.00;;;;5109929;28;20678;-76
2021/06/10 03:44:14;;;;;;;1.63;1.50;;;;;19.50;101930.00;;;;5091668;28;20190;-76
2021/06/10 03:46:42;;;;;;;2.08;1.45;;;;;19.50;101934.00;;;;5108841;28;20229;-77
2021/06/10 03:49:11;;;;;;;3.33;1.40;;;;;19.50;101924.00;;;;5100034;28;20229;-76
2021/06/10 03:51:38;;;;;;;1.27;1.17;;;;;19.60;101927.00;;;;5108868;28;20193;-76
2021/06/10 03:54:06;;;;;;;1.70;1.60;;;;;19.60;101927.00;;;;5109143;28;20197;-76
2021/06/10 03:56:33;;;;;;;2.08;1.48;;;;;19.60;101938.00;;;;5108110;28;20281;-76
2021/06/10 03:59:00;;;;;;;1.63;1.52;;;;;19.60;101929.00;;;;5108509;28;20209;-76
2021/06/10 04:01:26;;;;;;;2.13;1.83;;;;;19.60;101929.00;;;;5109640;28;20209;-76
2021/06/10 04:03:55;;;;;;;2.53;2.00;;;;;19.60;101923.00;;;;5091514;28;20194;-76
2021/06/10 04:06:28;;;;;;;2.10;1.80;;;;;19.70;101927.00;;;;5099747;28;20223;-76
2021/06/10 04:08:55;;;;;;;1.77;1.58;;;;;19.70;101920.00;;;;5108263;28;20216;-76
2021/06/10 04:11:22;;;;;;;2.40;2.20;;;;;19.70;101924.00;;;;5108428;28;20214;-76
2021/06/10 04:13:49;;;;;;;2.78;2.33;;;;;19.70;101917.00;;;;5095282;28;21047;-76
2021/06/10 04:16:15;;;;;;;2.05;1.80;;;;;19.80;101918.00;;;;5098442;28;20246;-76
2021/06/10 04:18:42;;;;;;;2.25;1.77;;;;;19.80;101916.00;;;;5106615;28;20216;-76
2021/06/10 04:21:10;;;;;;;3.72;2.25;;;;;19.90;101917.00;;;;5108824;28;20239;-76
2021/06/10 04:23:37;;;;;;;4.20;2.25;;;;;19.90;101917.00;;;;5106166;28;20193;-76
2021/06/10 04:26:04;;;;;;;3.70;2.20;;;;;20.00;101915.00;;;;5097034;28;20255;-76
2021/06/10 04:28:31;;;;;;;2.70;2.42;;;;;20.00;101915.00;;;;5106985;28;20542;-76
2021/06/10 04:30:58;;;;;;;2.30;2.10;;;;;20.10;101904.00;;;;5102182;28;20232;-76
2021/06/10 04:33:24;;;;;;;2.42;1.98;;;;;20.10;101906.00;;;;5104920;28;20699;-77
2021/06/10 04:35:51;;;;;;;3.97;2.20;;;;;20.20;101905.00;;;;5108145;28;20194;-76
2021/06/10 04:38:19;;;;;;;2.70;1.98;;;;;20.20;101896.00;;;;5104378;28;20266;-77
2021/06/10 04:40:46;;;;;;;2.10;1.80;;;;;20.30;101908.00;;;;5106495;28;20205;-76
2021/06/10 04:43:13;;;;;;;2.90;2.30;;;;;20.40;101913.00;;;;5108609;28;20209;-76
2021/06/10 04:45:40;;;;;;;2.17;1.90;;;;;20.40;101909.00;;;;5107251;28;20671;-76
2021/06/10 04:48:08;;;;;;;3.38;1.60;;;;;20.50;101914.00;;;;5109242;28;20246;-76
2021/06/10 04:50:35;;;;;;;2.95;2.33;;;;;20.60;101918.00;;;;5100051;28;20233;-76
2021/06/10 04:53:02;;;;;;;5.93;2.38;;;;;20.60;101916.00;;;;5088225;28;20204;-76
2021/06/10 04:55:30;;;;;;;2.60;2.35;;;;;20.70;101922.00;;;;5101671;28;20198;-76
2021/06/10 04:57:57;;;;;;;2.85;2.47;;;;;20.80;101921.00;;;;5103438;28;20206;-76
2021/06/10 05:00:24;;;;;;;2.47;2.03;;;;;20.80;101928.00;;;;5108036;28;20182;-76
2021/06/10 05:02:51;;;;;;;3.38;2.20;;;;;20.90;101925.00;;;;5103994;28;20201;-77
2021/06/10 05:05:17;;;;;;;3.45;2.63;;;;;21.00;101927.00;;;;5100400;28;20198;-76
2021/06/10 05:07:44;;;;;;;3.03;2.50;;;;;21.10;101933.00;;;;5098701;28;20210;-76
2021/06/10 05:10:12;;;;;;;3.40;2.70;;;;;21.10;101931.00;;;;5096201;28;20351;-77
2021/06/10 05:12:40;;;;;;;7.38;2.97;;;;;21.20;101938.00;;;;5099166;28;20685;-77
2021/06/10 05:15:07;;;;;;;4.28;2.78;;;;;21.30;101945.00;;;;5098411;28;20199;-77
2021/06/10 05:17:34;;;;;;;2.90;2.60;;;;;21.40;101952.00;;;;5094731;28;20205;-78
2021/06/10 05:20:01;;;;;;;3.45;3.13;;;;;21.50;101949.00;;;;5095619;28;20248;-77
2021/06/10 05:22:28;;;;;;;3.70;3.33;;;;;21.50;101940.00;;;;5099721;28;20554;-77
2021/06/10 05:24:55;;;;;;;3.58;2.83;;;;;21.60;101937.00;;;;5105882;28;20186;-77
2021/06/10 05:27:22;;;;;;;3.75;3.42;;;;;21.70;101943.00;;;;5102510;28;20254;-77
2021/06/10 05:29:50;;;;;;;5.22;4.25;;;;;21.80;101945.00;;;;5105897;28;20222;-77
2021/06/10 05:32:17;;;;;;;4.80;4.30;;;;;21.90;101949.00;;;;5104455;28;20210;-77
2021/06/10 05:34:44;;;;;;;5.05;4.05;;;;;22.00;101945.00;;;;5105397;28;20251;-77
2021/06/10 05:37:10;;;;;;;6.03;4.97;;;;;22.10;101939.00;;;;5102359;28;20189;-77
2021/06/10 05:39:37;;;;;;;6.05;4.22;;;;;22.20;101943.00;;;;5107187;28;20193;-77
2021/06/10 05:42:05;;;;;;;5.65;4.55;;;;;22.30;101936.00;;;;5104415;28;20210;-77
2021/06/10 05:44:31;;;;;;;6.10;5.50;;;;;22.40;101937.00;;;;5098960;28;20569;-76
2021/06/10 05:47:00;;;;;;;8.23;5.32;;;;;22.50;101948.00;;;;5110257;28;20189;-77
2021/06/10 05:49:26;;;;;;;7.30;5.18;;;;;22.60;101943.00;;;;5101826;28;20218;-77
2021/06/10 05:51:53;;;;;;;6.85;5.47;;;;;22.70;101948.00;;;;5097943;28;20205;-77
2021/06/10 05:54:20;;;;;;;5.28;4.78;;;;;22.80;101953.00;;;;5111392;28;20517;-76
2021/06/10 05:56:46;;;;;;;6.78;5.90;;;;;22.90;101956.00;;;;5103645;28;20202;-77
2021/06/10 05:59:13;;;;;;;8.07;5.40;;;;;23.00;101955.00;;;;5097446;28;20193;-76
2021/06/10 06:01:40;;;;;;;7.47;5.40;;;;;23.10;101952.00;;;;5098025;28;20772;-76
2021/06/10 06:04:08;;;;;;;5.43;4.93;;;;;23.20;101953.00;;;;5095994;28;20190;-77
2021/06/10 06:06:35;;;;;;;5.90;5.30;;;;;23.30;101955.00;;;;5097381;28;20198;-77
2021/06/10 06:09:06;;;;;;;7.93;5.55;;;;;23.40;101968.00;;;;5099658;28;20201;-76
2021/06/10 06:11:33;;;;;;;7.50;5.38;;;;;23.50;101962.00;;;;5096884;28;20198;-76
2021/06/10 06:14:07;;;;;;;6.25;5.18;;;;;23.60;101966.00;;;;5097740;28;20206;-77
2021/06/10 06:16:35;;;;;;;6.88;4.85;;;;;23.80;101962.00;;;;5097423;28;20204;-77
2021/06/10 06:19:03;;;;;;;7.45;6.15;;;;;23.80;101966.00;;;;5097959;28;20194;-76
2021/06/10 06:21:33;;;;;;;7.18;5.07;;;;;23.90;101972.00;;;;5095856;28;20205;-78
2021/06/10 06:24:00;;;;;;;7.60;5.20;;;;;24.00;101981.00;;;;5097101;28;20202;-78
2021/06/10 06:26:27;;;;;;;7.90;5.55;;;;;24.20;101980.00;;;;5097410;28;20201;-77
2021/06/10 06:28:58;;;;;;;5.55;4.57;;;;;24.20;101978.00;;;;5098268;28;20190;-75
2021/06/10 06:31:25;;;;;;;8.13;4.80;;;;;24.30;101983.00;;;;5100438;28;20209;-75
2021/06/10 06:33:52;;;;;;;6.53;5.70;;;;;24.40;101977.00;;;;5097897;28;20657;-75
2021/06/10 06:36:19;;;;;;;5.82;5.28;;;;;24.60;101985.00;;;;5095662;28;20629;-75
2021/06/10 06:38:47;;;;;;;4.50;3.95;;;;;24.70;101982.00;;;;5097966;28;20410;-78
2021/06/10 06:41:14;;;;;;;5.63;4.43;;;;;24.80;101986.00;;;;5108661;28;20318;-78
2021/06/10 06:43:41;;;;;;;4.88;4.30;;;;;24.90;101983.00;;;;5108290;28;20222;-78
2021/06/10 06:46:09;;;;;;;5.88;4.22;;;;;25.00;101993.00;;;;5088825;28;20607;-78
2021/06/10 06:48:36;;;;;;;5.85;4.05;;;;;25.10;101992.00;;;;5088072;28;20229;-78
2021/06/10 06:51:03;;;;;;;3.90;3.38;;;;;25.20;101991.00;;;;5088021;28;20222;-78
2021/06/10 06:53:30;;;;;;;6.30;3.55;;;;;25.20;101991.00;;;;5087999;28;20198;-78
2021/06/10 06:55:59;;;;;;;3.63;3.20;;;;;25.30;101996.00;;;;5096363;28;20193;-78
2021/06/10 06:58:26;;;;;;;4.20;3.47;;;;;25.40;101991.00;;;;5094420;28;20579;-79
2021/06/10 07:00:54;;;;;;;4.22;3.83;;;;;25.50;101990.00;;;;5103070;28;20193;-78
2021/06/10 07:03:21;;;;;;;4.05;3.35;;;;;25.50;101991.00;;;;5106165;28;20193;-78
2021/06/10 07:05:48;;;;;;;4.85;3.53;;;;;25.60;101995.00;;;;5098486;28;20198;-78
2021/06/10 07:08:15;;;;;;;3.90;3.13;;;;;25.70;102001.00;;;;5108500;28;20197;-77
2021/06/10 07:10:42;;;;;;;4.45;3.63;;;;;25.80;102000.00;;;;5108751;28;20225;-78
2021/06/10 07:13:10;;;;;;;3.45;3.08;;;;;25.90;102000.00;;;;5107634;28;20189;-78
2021/06/10 07:15:39;;;;;;;3.58;2.92;;;;;26.00;102002.00;;;;5107998;28;20214;-78
2021/06/10 07:18:06;;;;;;;4.10;3.70;;;;;26.10;102002.00;;;;5100816;28;20205;-78
2021/06/10 07:20:33;;;;;;;4.47;3.42;;;;;26.20;102003.00;;;;5101738;28;20190;-78
2021/06/10 07:23:00;;;;;;;3.25;2.45;;;;;26.30;102009.00;;;;5102044;28;20197;-78
2021/06/10 07:25:27;;;;;;;3.40;3.10;;;;;26.40;102010.00;;;;5095995;28;20233;-78
2021/06/10 07:27:54;;;;;;;3.05;2.75;;;;;26.50;102011.00;;;;5091647;28;20252;-78
2021/06/10 07:30:24;;;;;;;3.25;2.95;;;;;26.60;102011.00;;;;5102628;28;20840;-78
2021/06/10 07:32:51;;;;;;;4.00;2.58;;;;;26.80;102004.00;;;;5104969;28;20189;-78
2021/06/10 07:35:21;;;;;;;3.17;2.60;;;;;26.90;102010.00;;;;5106664;28;20224;-78
2021/06/10 07:37:48;;;;;;;2.25;2.05;;;;;27.00;102013.00;;;;5105988;28;20246;-78
2021/06/10 07:40:17;;;;;;;3.85;3.05;;;;;27.10;102016.00;;;;5107552;28;20213;-78
2021/06/10 07:42:44;;;;;;;3.30;2.50;;;;;27.20;102019.00;;;;5099144;28;20213;-78
2021/06/10 07:45:12;;;;;;;2.42;2.22;;;;;27.30;102017.00;;;;5102413;28;20190;-79
2021/06/10 07:47:41;;;;;;;3.72;2.00;;;;;27.40;102022.00;;;;5104809;28;20217;-78
2021/06/10 07:50:09;;;;;;;2.13;1.92;;;;;27.50;102020.00;;;;5100161;28;20221;-78
2021/06/10 07:52:36;;;;;;;2.10;1.55;;;;;27.60;102023.00;;;;5109060;28;20202;-78
2021/06/10 07:55:03;;;;;;;4.82;1.85;;;;;27.60;102018.00;;;;5108487;28;20204;-78
2021/06/10 07:57:30;;;;;;;4.65;1.60;;;;;27.70;102014.00;;;;5107767;28;20189;-78
2021/06/10 07:59:57;;;;;;;2.67;1.80;;;;;27.90;102023.00;;;;5102143;28;20213;-78
2021/06/10 08:02:25;;;;;;;2.05;1.42;;;;;28.00;102027.00;;;;5096780;28;20214;-79
2021/06/10 08:04:54;;;;;;;2.85;1.40;;;;;28.10;102028.00;;;;5106588;28;20198;-78
2021/06/10 08:07:20;;;;;;;5.72;1.42;;;;;28.20;102034.00;;;;5102295;28;20206;-79
2021/06/10 08:09:47;;;;;;;6.20;2.25;;;;;28.30;102021.00;;;;5103488;28;20237;-79
2021/06/10 08:12:14;;;;;;;2.20;1.90;;;;;28.40;102032.00;;;;5098129;28;20694;-78
2021/06/10 08:14:40;;;;;;;2.20;1.70;;;;;28.60;102034.00;;;;5106042;28;20198;-78
2021/06/10 08:17:07;;;;;;;2.22;1.48;;;;;28.70;102044.00;;;;5105392;28;20197;-79
2021/06/10 08:19:35;;;;;;;2.95;1.80;;;;;28.80;102040.00;;;;5102815;28;20330;-79
2021/06/10 08:22:04;;;;;;;3.85;1.88;;;;;28.80;102039.00;;;;5106489;28;20201;-79
2021/06/10 08:24:31;;;;;;;2.42;2.15;;;;;29.00;102043.00;;;;5108089;28;20569;-78
2021/06/10 08:26:57;;;;;;;2.47;2.20;;;;;29.10;102040.00;;;;5106994;28;20227;-79
2021/06/10 08:29:27;;;;;;;2.30;2.05;;;;;29.20;102047.00;;;;5095857;28;20205;-79
2021/06/10 08:31:54;;;;;;;2.60;2.17;;;;;29.30;102041.00;;;;5105507;28;20193;-79
2021/06/10 08:34:21;;;;;;;2.92;2.38;;;;;29.40;102047.00;;;;5101211;28;20230;-76
2021/06/10 08:36:48;;;;;;;3.40;2.97;;;;;29.50;102046.00;;;;5105096;28;20213;-76
2021/06/10 08:39:17;;;;;;;5.47;2.45;;;;;29.50;102047.00;;;;5106817;28;21049;-77
2021/06/10 08:41:44;;;;;;;4.47;2.55;;;;;29.60;102051.00;;;;5101894;28;20194;-76
2021/06/10 08:44:11;;;;;;;3.70;2.63;;;;;29.70;102043.00;;;;5100622;28;20228;-77
2021/06/10 08:46:39;;;;;;;2.83;2.58;;;;;29.80;102042.00;;;;5103007;28;21164;-77
2021/06/10 08:49:07;;;;;;;2.72;2.30;;;;;29.90;102045.00;;;;5107147;28;20591;-77
2021/06/10 08:51:34;;;;;;;3.42;3.10;;;;;30.00;102050.00;;;;5102048;28;20797;-78
2021/06/10 08:54:02;;;;;;;3.65;3.33;;;;;30.10;102042.00;;;;5100996;28;20258;-78
2021/06/10 08:56:32;;;;;;;4.07;2.97;;;;;30.10;102045.00;;;;5105169;28;20255;-78
2021/06/10 08:58:59;;;;;;;4.18;3.55;;;;;30.10;102046.00;;;;5106001;28;20284;-78
2021/06/10 09:01:27;;;;;;;3.88;3.15;;;;;30.20;102047.00;;;;5099479;28;20209;-78
2021/06/10 09:03:55;;;;;;;4.25;3.85;;;;;30.30;102058.00;;;;5100939;28;20613;-78
2021/06/10 09:06:21;;;;;;;5.35;3.30;;;;;30.30;102062.00;;;;5098585;28;20201;-78
2021/06/10 09:08:55;;;;;;;3.97;3.53;;;;;30.40;102054.00;;;;5106277;28;20236;-78
2021/06/10 09:11:23;;;;;;;4.50;3.67;;;;;30.50;102058.00;;;;5098803;28;20225;-78
2021/06/10 09:13:55;;;;;;;4.13;3.72;;;;;30.60;102054.00;;;;5103691;28;20660;-77
2021/06/10 09:16:25;;;;;;;4.80;3.70;;;;;30.70;102057.00;;;;5103331;28;20203;-77
2021/06/10 09:18:56;;;;;;;4.05;3.25;;;;;30.70;102053.00;;;;5093963;28;20198;-77
2021/06/10 09:21:34;;;;;;;4.15;3.75;;;;;30.70;102057.00;;;;5109580;28;20278;-77
2021/06/10 09:24:18;;;;;;;5.20;4.00;;;;;30.70;102054.00;;;;5111636;28;20197;-78
2021/06/10 09:26:46;;;;;;;4.72;3.92;;;;;30.90;102050.00;;;;5105490;28;20281;-77
2021/06/10 09:29:14;;;;;;;4.15;3.75;;;;;30.90;102054.00;;;;5102726;28;20243;-77
2021/06/10 09:31:43;;;;;;;3.97;3.58;;;;;31.00;102047.00;;;;5102913;28;20648;-78
2021/06/10 09:34:17;;;;;;;4.00;3.60;;;;;31.00;102049.00;;;;5095224;28;20363;-77
2021/06/10 09:36:46;;;;;;;4.65;4.25;;;;;31.10;102046.00;;;;5108558;28;20201;-77
2021/06/10 09:39:17;;;;;;;3.22;2.72;;;;;31.20;102048.00;;;;5110021;28;20627;-78
2021/06/10 09:42:01;;;;;;;4.18;3.00;;;;;31.20;102052.00;;;;5105814;28;20205;-78
2021/06/10 09:44:40;;;;;;;5.30;3.90;;;;;31.30;102050.00;;;;5104819;28;20205;-78
2021/06/10 09:47:07;;;;;;;7.03;4.38;;;;;31.40;102049.00;;;;5108170;28;20265;-78
2021/06/10 09:49:34;;;;;;;4.70;4.22;;;;;31.50;102050.00;;;;5109258;28;20206;-78
2021/06/10 09:52:02;;;;;;;4.35;3.75;;;;;31.50;102047.00;;;;5101386;28;20200;-78
2021/06/10 09:54:40;;;;;;;3.50;3.20;;;;;31.50;102046.00;;;;5109397;28;20311;-78
2021/06/10 09:57:08;;;;;;;4.35;3.60;;;;;31.60;102048.00;;;;5106098;28;20570;-78
2021/06/10 09:59:45;;;;;;;3.58;3.22;;;;;31.60;102058.00;;;;5110532;28;20211;-77
2021/06/10 10:02:26;;;;;;;4.15;3.53;;;;;31.50;102051.00;;;;5110083;28;20709;-77
2021/06/10 10:05:06;;;;;;;3.47;2.88;;;;;31.60;102057.00;;;;5106068;28;21260;-78
2021/06/10 10:07:34;;;;;;;4.57;3.35;;;;;31.70;102053.00;;;;5098707;28;20569;-78
2021/06/10 10:10:03;;;;;;;4.18;3.47;;;;;31.80;102058.00;;;;5105591;28;20587;-78
2021/06/10 10:12:32;;;;;;;4.32;2.92;;;;;31.80;102050.00;;;;5102798;28;20197;-78
2021/06/10 10:15:00;;;;;;;4.20;3.65;;;;;31.80;102060.00;;;;5109836;28;20239;-78
2021/06/10 10:17:28;;;;;;;4.07;2.72;;;;;31.90;102054.00;;;;5102284;28;20197;-78
2021/06/10 10:19:55;;;;;;;6.00;3.33;;;;;31.90;102057.00;;;;5111179;28;20197;-78
2021/06/10 10:22:22;;;;;;;4.63;3.00;;;;;31.90;102049.00;;;;5108738;28;20283;-77
2021/06/10 10:24:52;;;;;;;3.15;2.85;;;;;31.90;102058.00;;;;5106655;28;20217;-78
2021/06/10 10:27:18;;;;;;;3.55;3.22;;;;;31.90;102052.00;;;;5107431;28;20198;-78
2021/06/10 10:29:46;;;;;;;3.67;3.13;;;;;31.90;102043.00;;;;5105540;28;20212;-77
2021/06/10 10:32:19;;;;;;;5.03;3.50;;;;;31.90;102043.00;;;;5104597;28;20190;-77
2021/06/10 10:34:46;;;;;;;4.20;3.75;;;;;32.00;102042.00;;;;5104066;28;20230;-78
2021/06/10 10:37:25;;;;;;;5.57;3.28;;;;;31.90;102045.00;;;;5104851;28;20194;-78
2021/06/10 10:39:54;;;;;;;3.72;3.10;;;;;32.00;102035.00;;;;5098557;28;20206;-78
2021/06/10 10:42:29;;;;;;;3.30;2.95;;;;;32.00;102041.00;;;;5100168;28;20248;-78
2021/06/10 10:45:14;;;;;;;5.57;3.67;;;;;31.90;102036.00;;;;5101625;28;20194;-78
2021/06/10 10:47:45;;;;;;;4.03;3.15;;;;;32.00;102039.00;;;;5101464;28;20194;-78
2021/06/10 10:50:17;;;;;;;3.03;2.70;;;;;32.10;102038.00;;;;5106043;28;20221;-78
2021/06/10 10:52:56;;;;;;;3.50;3.20;;;;;32.00;102044.00;;;;5108669;28;20221;-77
2021/06/10 10:55:29;;;;;;;5.10;3.58;;;;;32.10;102035.00;;;;5103248;28;20200;-77
2021/06/10 10:58:07;;;;;;;3.15;2.78;;;;;32.10;102045.00;;;;5109444;28;20201;-77
2021/06/10 11:00:49;;;;;;;4.28;2.35;;;;;32.00;102042.00;;;;5107429;27;20370;-76
2021/06/10 11:03:20;;;;;;;5.28;2.28;;;;;32.10;102036.00;;;;5109821;28;20221;-76
2021/06/10 11:05:47;;;;;;;3.72;3.08;;;;;32.20;102038.00;;;;5109546;28;20205;-76
2021/06/10 11:08:14;;;;;;;3.65;2.97;;;;;32.30;102030.00;;;;5104169;28;20617;-76
2021/06/10 11:11:03;;;;;;;3.35;2.30;;;;;32.20;102027.00;;;;5103492;28;20274;-77
2021/06/10 11:13:32;;;;;;;3.50;2.75;;;;;32.30;102033.00;;;;5102314;28;20209;-76
2021/06/10 11:16:04;;;;;;;2.65;2.40;;;;;32.20;102025.00;;;;5104157;28;20202;-77
2021/06/10 11:18:50;;;;;;;2.63;1.95;;;;;32.20;102029.00;;;;5099637;28;20206;-77
2021/06/10 11:21:52;;;;;;;2.28;2.08;;;;;32.20;102022.00;;;;5102763;28;20200;-77
2021/06/10 11:24:23;;;;;;;2.05;1.92;;;;;32.20;102024.00;;;;5102306;28;20275;-77
2021/06/10 11:27:00;;;;;;;2.33;2.03;;;;;32.20;102018.00;;;;5105114;28;20676;-76
2021/06/10 11:29:27;;;;;;;2.30;2.10;;;;;32.30;102018.00;;;;5103510;28;20208;-76
2021/06/10 11:32:26;;;;;;;2.15;1.92;;;;;32.20;102018.00;;;;5106662;28;20225;-76
2021/06/10 11:34:56;;;;;;;4.35;1.88;;;;;32.20;102011.00;;;;5107053;28;20224;-76
2021/06/10 11:37:25;;;;;;;1.52;1.40;;;;;32.30;102014.00;;;;5105537;28;20200;-77
2021/06/10 11:39:52;;;;;;;1.60;1.33;;;;;32.30;102013.00;;;;5103046;28;20568;-76
2021/06/10 11:42:22;;;;;;;1.20;1.10;;;;;32.40;102006.00;;;;5098696;28;20213;-77
2021/06/10 11:44:50;;;;;;;0.88;0.73;;;;;32.40;102011.00;;;;5103534;28;20197;-77
2021/06/10 11:47:26;;;;;;;0.60;0.60;;;;;32.30;102000.00;;;;5106535;28;20225;-76
2021/06/10 11:49:54;;;;;;;0.70;0.70;;;;;32.40;102004.00;;;;5108701;28;20201;-77
2021/06/10 11:52:22;;;;;;;1.75;0.93;;;;;32.40;102004.00;;;;5108770;28;20255;-76
2021/06/10 11:55:07;;;;;;;0.85;0.63;;;;;32.30;102001.00;;;;5109310;28;20201;-77
2021/06/10 11:57:34;;;;;;;2.05;0.50;;;;;32.40;101998.00;;;;5102414;28;20194;-77
2021/06/10 12:00:07;;;;;;;1.00;0.90;;;;;32.30;102004.00;;;;5108732;28;20224;-76
2021/06/10 12:02:35;;;;;;;1.83;1.30;;;;;32.30;101997.00;;;;5108080;28;21122;-76
2021/06/10 12:05:16;;;;;;;2.22;1.38;;;;;32.20;102003.00;;;;5102668;28;20216;-76
2021/06/10 12:07:43;;;;;;;1.50;1.33;;;;;32.30;101998.00;;;;5106767;28;20205;-76
2021/06/10 12:10:20;;;;;;;0.95;0.60;;;;;32.20;101996.00;;;;5104073;28;20222;-76
2021/06/10 12:12:48;;;;;;;1.15;1.05;;;;;32.30;102004.00;;;;5093841;28;20198;-76
2021/06/10 12:15:30;;;;;;;1.45;1.08;;;;;32.20;102001.00;;;;5098735;28;20598;-76
2021/06/10 12:17:59;;;;;;;1.15;1.08;;;;;32.30;101988.00;;;;5108596;28;20711;-76